Patcona II — WDC2170 — position and weather

sailwx.info

Track history (hours):
 
Tides and Currents Weather Stations Pressure Air Temp Water Temp Dewpoint Dewpoint Depression Visibility Wind Speed Wind Dir Waves Ship Positions

Patcona II

Owner: Connolly-Pacific Co, long beach, CA. More information available from US FCC via Universal Licensing System and Coast Guard Vessel Documentation Center.

Last reported at 2016-May-01 22:33 UTC. Time now 2016-May-01 23:11 UTC.
Position N 33°46' W 118°13'.

; draft 9 m.

Type: Towing. MMSI: 366988960.

Date/timePositionNaut miles runAvg speedWind from/ knotsBaromVisibWave heightAir tempDewpointWater temp
2016-May-01 22:33N 33°46' W 118°13'0 0.0
2016-May-01 21:34N 33°46' W 118°13'0 0.0
2016-May-01 20:33N 33°46' W 118°13'0 0.0
2016-May-01 19:33N 33°46' W 118°13'0 0.0
2016-May-01 18:33N 33°46' W 118°13'0 0.0
2016-May-01 17:33N 33°46' W 118°13'0 0.0
2016-May-01 16:33N 33°46' W 118°13'0 0.0
2016-May-01 15:33N 33°46' W 118°13'119612815.8
2016-May-01 15:28N 29°44' W 095°16'11961323.3
2016-May-01 14:33N 33°46' W 118°13'1198862652.7
2016-May-01 14:33N 29°44' W 095°13'11981199.8
2016-May-01 13:33N 33°46' W 118°13'120363667.6
2016-May-01 13:32N 29°44' W 095°08'12031222.6
2016-May-01 12:33N 33°46' W 118°13'1203144375.5
2016-May-01 12:33N 29°44' W 095°07'12031216.3
2016-May-01 11:33N 33°46' W 118°13'1203117061.2
2016-May-01 11:33N 29°44' W 095°07'12031219.0
2016-May-01 10:34N 33°46' W 118°13'120384926.7
2016-May-01 10:33N 29°44' W 095°07'12031217.0
2016-May-01 09:33N 33°46' W 118°13'1203113980.5
2016-May-01 09:33N 29°44' W 095°07'12031216.0
2016-May-01 08:33N 33°46' W 118°13'1203103125.2
2016-May-01 08:33N 29°44' W 095°07'12031217.7
2016-May-01 07:33N 33°46' W 118°13'1203105640.0
2016-May-01 07:33N 29°44' W 095°07'12031213.2
2016-May-01 06:33N 33°46' W 118°13'1203154687.4
2016-May-01 06:33N 29°44' W 095°07'0 0.0
2016-May-01 05:33N 29°44' W 095°07'1203216563.3
2016-May-01 05:33N 33°46' W 118°13'0 0.0
2016-May-01 04:34N 33°46' W 118°13'120398442.5
2016-May-01 04:33N 29°44' W 095°07'12031215.0
2016-May-01 03:33N 33°46' W 118°13'1200432143.7
2016-May-01 03:33N 29°45' W 095°10'12001203.4
2016-May-01 02:33N 33°46' W 118°13'12004325.8
2016-May-01 02:17N 29°45' W 095°10'12001649.4
2016-May-01 01:33N 33°46' W 118°13'0 0.0
2016-May-01 00:33N 33°46' W 118°13'12004330.1
2016-May-01 00:17N 29°45' W 095°10'12001660.2
2016-Apr-30 23:33N 33°46' W 118°13'12006731.2
2016-Apr-30 23:23N 29°45' W 095°10'12001461.4
2016-Apr-30 22:33N 33°46' W 118°13'1203721763.2
2016-Apr-30 22:33N 29°44' W 095°07'12031201.3
2016-Apr-30 21:33N 33°46' W 118°13'12077275.9
2016-Apr-30 21:23N 29°44' W 095°03'12071451.3
2016-Apr-30 20:33N 33°46' W 118°13'120720109.8
2016-Apr-30 20:30N 29°44' W 095°03'0 0.2
2016-Apr-30 19:33N 29°44' W 095°03'1207310302.6
2016-Apr-30 19:33N 33°46' W 118°13'0 0.0
2016-Apr-30 18:34N 33°46' W 118°13'1211726688.5
2016-Apr-30 18:33N 29°41' W 094°59'4 4.2
2016-Apr-30 17:33N 29°37' W 094°60'12111090285.4
2016-Apr-30 17:33N 33°46' W 118°13'0 0.0
2016-Apr-30 16:34N 33°46' W 118°13'121130922.5
2016-Apr-30 16:31N 29°37' W 095°00'12111256.5
2016-Apr-30 15:33N 33°46' W 118°13'121134603.7
2016-Apr-30 15:31N 29°37' W 095°00'12111259.0
2016-Apr-30 14:34N 33°46' W 118°13'121131825.2
2016-Apr-30 14:31N 29°37' W 095°00'12111255.4
2016-Apr-30 13:33N 33°46' W 118°13'12114233.1
2016-Apr-30 13:16N 29°37' W 095°00'12111696.5
2016-Apr-30 12:33N 33°46' W 118°13'12118844.0
2016-Apr-30 12:25N 29°37' W 095°00'0 0.0
2016-Apr-30 11:34N 29°37' W 095°00'1211545010.6
2016-Apr-30 11:33N 33°46' W 118°13'0 0.0
2016-Apr-30 10:33N 33°46' W 118°13'1213132313.2
2016-Apr-30 10:33N 29°38' W 094°58'12131224.4
2016-Apr-30 09:33N 33°46' W 118°13'0 0.0
2016-Apr-30 08:33N 33°46' W 118°13'0 0.0
2016-Apr-30 07:33N 33°46' W 118°13'0 0.0
2016-Apr-30 06:33N 33°46' W 118°13'0 0.0
2016-Apr-30 05:34N 33°46' W 118°13'0 0.0
2016-Apr-30 04:34N 33°46' W 118°13'0 0.0
2016-Apr-30 03:33N 33°46' W 118°13'0 0.0
2016-Apr-30 02:32N 33°46' W 118°13'0 0.0
2016-Apr-30 01:33N 33°46' W 118°13'120360165.6
2016-Apr-30 01:32N 29°47' W 095°06'12031224.4
2016-Apr-30 00:33N 33°46' W 118°13'120367686.3
2016-Apr-30 00:32N 29°47' W 095°06'12031218.2
2016-Apr-29 23:33N 33°46' W 118°13'12032813.0
2016-Apr-29 23:07N 29°47' W 095°06'2 2.9
2016-Apr-29 22:33N 29°46' W 095°05'12051445881.1
2016-Apr-29 22:33N 33°46' W 118°13'12111215.0
2016-Apr-29 21:33N 29°41' W 094°59'12111452770.9
2016-Apr-29 21:33N 33°46' W 118°13'0 0.0
2016-Apr-29 20:32N 33°46' W 118°13'1210145227.2
2016-Apr-29 20:32N 29°41' W 094°60'12101237.7
2016-Apr-29 19:33N 33°46' W 118°13'0 0.0
2016-Apr-29 18:32N 33°46' W 118°13'1210396074.0
2016-Apr-29 18:32N 29°41' W 094°60'0 0.0
2016-Apr-29 17:32N 29°41' W 094°60'121026728.9
2016-Apr-29 17:29N 33°46' W 118°13'0 0.0
2016-Apr-29 16:33N 33°46' W 118°13'1210484090.5
2016-Apr-29 16:33N 29°41' W 094°60'12101212.6
2016-Apr-29 15:33N 33°46' W 118°13'120612129.5
2016-Apr-29 15:27N 29°44' W 095°03'12061340.2
2016-Apr-29 14:33N 33°46' W 118°13'120352828.9
2016-Apr-29 14:32N 29°47' W 095°06'12031231.0
2016-Apr-29 13:33N 33°46' W 118°13'120329876.1
2016-Apr-29 13:31N 29°47' W 095°06'12031254.2
2016-Apr-29 12:33N 33°46' W 118°13'0 0.0
2016-Apr-29 11:33N 33°46' W 118°13'0 0.0
2016-Apr-29 10:33N 33°46' W 118°13'120384942.7
2016-Apr-29 10:33N 29°47' W 095°06'12031220.6
2016-Apr-29 09:33N 33°46' W 118°13'0 0.0
2016-Apr-29 08:33N 33°46' W 118°13'0 0.0
2016-Apr-29 07:33N 33°46' W 118°13'0 0.0
2016-Apr-29 06:33N 33°46' W 118°13'0 0.0
2016-Apr-29 05:33N 33°46' W 118°13'0 0.0
2016-Apr-29 04:33N 33°46' W 118°13'0 0.0
2016-Apr-29 03:33N 33°46' W 118°13'0 0.0
2016-Apr-29 02:33N 33°46' W 118°13'0 0.0
2016-Apr-29 01:33N 33°46' W 118°13'0 0.0
2016-Apr-29 00:33N 33°46' W 118°13'0 0.0
2016-Apr-28 23:34N 33°46' W 118°13'0 0.0
2016-Apr-28 22:33N 33°46' W 118°13'0 0.0
2016-Apr-28 21:33N 33°46' W 118°13'0 0.0
2016-Apr-28 20:33N 33°46' W 118°13'0 0.0
2016-Apr-28 19:34N 33°46' W 118°13'0 0.0
2016-Apr-28 18:33N 33°46' W 118°13'0 0.0
2016-Apr-28 17:33N 33°46' W 118°13'0 0.0
2016-Apr-28 16:33N 33°46' W 118°13'0 0.0
2016-Apr-28 15:33N 33°46' W 118°13'0 0.0
2016-Apr-28 14:33N 33°46' W 118°13'0 0.0
2016-Apr-28 13:33N 33°46' W 118°13'120417908.8
2016-Apr-28 13:29N 29°45' W 095°06'3 2.8
2016-Apr-28 12:33N 29°44' W 095°03'1207723908.1
2016-Apr-28 12:33N 33°46' W 118°13'0 0.0
2016-Apr-28 11:33N 33°46' W 118°13'0 0.0
2016-Apr-28 10:33N 33°46' W 118°13'0 0.0
2016-Apr-28 09:33N 33°46' W 118°13'0 0.0
2016-Apr-28 08:33N 33°46' W 118°13'0 0.0
2016-Apr-28 07:33N 33°46' W 118°13'0 0.0
2016-Apr-28 06:33N 33°46' W 118°13'0 0.0
2016-Apr-28 05:33N 33°46' W 118°13'0 0.0
2016-Apr-28 04:33N 33°46' W 118°13'0 0.0
2016-Apr-28 03:33N 33°46' W 118°13'0 0.0
2016-Apr-28 02:34N 33°46' W 118°13'0 0.0
2016-Apr-28 01:33N 33°46' W 118°13'0 0.0
2016-Apr-28 00:33N 33°46' W 118°13'0 0.0
2016-Apr-27 23:33N 33°46' W 118°13'0 0.0
2016-Apr-27 22:33N 33°46' W 118°13'1207543035.1
2016-Apr-27 22:33N 29°44' W 095°03'12071209.1
2016-Apr-27 21:33N 33°46' W 118°13'0 0.0
2016-Apr-27 20:33N 33°46' W 118°13'0 0.0
2016-Apr-27 19:33N 33°46' W 118°13'120325940.3
2016-Apr-27 19:31N 29°47' W 095°06'12031262.2
2016-Apr-27 18:33N 33°46' W 118°13'120373409.8
2016-Apr-27 18:32N 29°44' W 095°07'12031206.5
2016-Apr-27 17:33N 33°46' W 118°13'0 0.0
2016-Apr-27 16:28N 33°46' W 118°13'0 0.0
2016-Apr-27 15:33N 33°46' W 118°13'0 0.0
2016-Apr-27 14:33N 33°46' W 118°13'0 0.0
2016-Apr-27 13:33N 33°46' W 118°13'0 0.0
2016-Apr-27 12:34N 33°46' W 118°13'12034267.9
2016-Apr-27 12:17N 29°47' W 095°06'12031670.0
2016-Apr-27 11:33N 33°46' W 118°13'120315146.7
2016-Apr-27 11:29N 29°47' W 095°06'12031307.2
2016-Apr-27 10:33N 33°46' W 118°13'120315307.3
2016-Apr-27 10:29N 29°47' W 095°06'12031306.0
2016-Apr-27 09:33N 33°46' W 118°13'120383310.1
2016-Apr-27 09:33N 29°47' W 095°06'12031221.0
2016-Apr-27 08:33N 33°46' W 118°13'12042346.5
2016-Apr-27 08:03N 29°45' W 095°06'12042470.9
2016-Apr-27 07:33N 33°46' W 118°13'0 0.0
2016-Apr-27 06:33N 33°46' W 118°13'0 0.0
2016-Apr-27 05:34N 33°46' W 118°13'0 0.0
2016-Apr-27 04:33N 33°46' W 118°13'0 0.0
2016-Apr-27 03:33N 33°46' W 118°13'0 0.0
2016-Apr-27 02:33N 33°46' W 118°13'0 0.0
2016-Apr-27 01:34N 33°46' W 118°13'0 0.0
2016-Apr-27 00:33N 33°46' W 118°13'0 0.0
2016-Apr-26 23:33N 33°46' W 118°13'120312334.8
2016-Apr-26 23:28N 29°44' W 095°08'12031332.6
2016-Apr-26 22:33N 33°46' W 118°13'0 0.0
2016-Apr-26 21:34N 33°46' W 118°13'0 0.0
2016-Apr-26 20:33N 33°46' W 118°13'0 0.0
2016-Apr-26 19:34N 33°46' W 118°13'0 0.0
2016-Apr-26 18:34N 33°46' W 118°13'0 0.0
2016-Apr-26 17:33N 33°46' W 118°13'0 0.0
2016-Apr-26 16:33N 33°46' W 118°13'11971199.6
2016-Apr-26 15:34N 29°43' W 095°15'1197253531.0
2016-Apr-26 15:33N 33°46' W 118°13'0 0.0
2016-Apr-26 14:34N 33°46' W 118°13'1202139641.0
2016-Apr-26 14:33N 29°44' W 095°08'12021209.5
2016-Apr-26 13:33N 33°46' W 118°13'1203333235.6
2016-Apr-26 13:33N 29°47' W 095°06'0 0.1
2016-Apr-26 12:33N 29°47' W 095°06'1203188346.2
2016-Apr-26 12:33N 33°46' W 118°13'0 0.0
2016-Apr-26 11:33N 33°46' W 118°13'1203433194.4
2016-Apr-26 11:33N 29°47' W 095°06'0 0.0
2016-Apr-26 10:33N 29°47' W 095°06'12032165971.9
2016-Apr-26 10:33N 33°46' W 118°13'12031204.0
2016-Apr-26 09:33N 29°47' W 095°06'12032165971.9
2016-Apr-26 09:33N 33°46' W 118°13'0 0.0
2016-Apr-26 08:33N 33°46' W 118°13'120354834.7
2016-Apr-26 08:32N 29°47' W 095°06'1 1.2
2016-Apr-26 07:34N 29°46' W 095°05'120490316.2
2016-Apr-26 07:33N 33°46' W 118°13'0 0.0
2016-Apr-26 06:33N 33°46' W 118°13'0 0.0
2016-Apr-26 05:34N 33°46' W 118°13'0 0.0
2016-Apr-26 04:33N 33°46' W 118°13'0 0.0
2016-Apr-26 03:33N 33°46' W 118°13'12041205.1
2016-Apr-26 02:33N 29°45' W 095°06'1204197041.3
2016-Apr-26 02:33N 33°46' W 118°13'12101216.6
2016-Apr-26 01:33N 29°42' W 094°60'1210207405.1
2016-Apr-26 01:33N 33°46' W 118°13'12151222.3
2016-Apr-26 00:33N 29°36' W 094°56'1215208248.8
2016-Apr-26 00:33N 33°46' W 118°13'0 0.0
2016-Apr-25 23:33N 33°46' W 118°13'1221244124.8
2016-Apr-25 23:33N 29°29' W 094°52'12211227.4
2016-Apr-25 22:33N 33°46' W 118°13'0 0.0
2016-Apr-25 21:33N 33°46' W 118°13'0 0.0
2016-Apr-25 20:33N 33°46' W 118°13'0 0.0
2016-Apr-25 19:33N 33°46' W 118°13'0 0.0
2016-Apr-25 18:33N 33°46' W 118°13'0 0.0
2016-Apr-25 17:34N 33°46' W 118°13'0 0.0
2016-Apr-25 16:33N 33°46' W 118°13'0 0.0
2016-Apr-25 15:33N 33°46' W 118°13'0 0.0
2016-Apr-25 14:33N 33°46' W 118°13'0 0.0
2016-Apr-25 13:33N 33°46' W 118°13'0 0.0
2016-Apr-25 12:33N 33°46' W 118°13'0 0.0
2016-Apr-25 11:33N 33°46' W 118°13'0 0.0
2016-Apr-25 10:33N 33°46' W 118°13'0 0.0
2016-Apr-25 09:33N 33°46' W 118°13'0 0.0
2016-Apr-25 08:33N 33°46' W 118°13'0 0.0
2016-Apr-25 07:33N 33°46' W 118°13'0 0.0
2016-Apr-25 06:33N 33°46' W 118°13'0 0.0
2016-Apr-25 05:33N 33°46' W 118°13'0 0.0
2016-Apr-25 04:33N 33°46' W 118°13'0 0.0
2016-Apr-25 03:33N 33°46' W 118°13'0 0.0
2016-Apr-25 02:33N 33°46' W 118°13'0 0.0
2016-Apr-25 01:33N 33°46' W 118°13'0 0.0
2016-Apr-25 00:34N 33°46' W 118°13'0 0.0
2016-Apr-24 23:33N 33°46' W 118°13'0 0.0
2016-Apr-24 22:34N 33°46' W 118°13'0 0.0
2016-Apr-24 21:33N 33°46' W 118°13'0 0.0
2016-Apr-24 20:33N 33°46' W 118°13'0 0.0
2016-Apr-24 19:33N 33°46' W 118°13'0 0.0
2016-Apr-24 18:33N 33°46' W 118°13'1223107417.4
2016-Apr-24 18:33N 29°22' W 094°51'12231237.5
2016-Apr-24 17:33N 33°46' W 118°13'0 0.0
2016-Apr-24 16:33N 33°46' W 118°13'0 0.0
2016-Apr-24 15:33N 33°46' W 118°13'0 0.0
2016-Apr-24 14:34N 33°46' W 118°13'0 0.0
2016-Apr-24 13:33N 33°46' W 118°13'0 0.0
2016-Apr-24 12:32N 33°46' W 118°13'0 0.0
2016-Apr-24 11:29N 33°46' W 118°13'0 0.0
2016-Apr-24 10:25N 33°46' W 118°13'0 0.0
2016-Apr-24 09:21N 33°46' W 118°13'0 0.0
2016-Apr-24 08:29N 33°46' W 118°13'0 0.0
2016-Apr-24 07:32N 33°46' W 118°13'0 0.0
2016-Apr-24 06:29N 33°46' W 118°13'0 0.0
2016-Apr-24 05:28N 33°46' W 118°13'0 0.0
2016-Apr-24 04:27N 33°46' W 118°13'0 0.0
2016-Apr-24 03:33N 33°46' W 118°13'0 0.0
2016-Apr-24 02:33N 33°46' W 118°13'0 0.0
2016-Apr-24 01:33N 33°46' W 118°13'12295286.7
2016-Apr-24 01:19N 29°21' W 094°45'12291591.7
2016-Apr-24 00:33N 33°46' W 118°13'122418431.2
2016-Apr-24 00:29N 29°25' W 094°50'7 7.8
2016-Apr-23 23:33N 29°32' W 094°53'1218208879.7
2016-Apr-23 23:33N 33°46' W 118°13'12131213.1
2016-Apr-23 22:33N 29°38' W 094°58'12131091450.9
2016-Apr-23 22:33N 33°46' W 118°13'0 0.0
2016-Apr-23 21:33N 33°46' W 118°13'12068716.1
2016-Apr-23 21:24N 29°45' W 095°04'12061234.2
2016-Apr-23 20:26N 33°46' W 118°13'0 0.0
2016-Apr-23 19:33N 33°46' W 118°13'0 0.0
2016-Apr-23 18:31N 33°46' W 118°13'0 0.0
2016-Apr-23 16:31N 33°46' W 118°13'0 0.0
2016-Apr-23 15:18N 33°46' W 118°13'120311583.0
2016-Apr-23 15:12N 29°47' W 095°06'12031763.9
2016-Apr-23 14:31N 33°46' W 118°13'12031206.1
2016-Apr-23 13:31N 29°46' W 095°06'12034719.1
2016-Apr-23 13:16N 33°46' W 118°13'0 0.0
2016-Apr-23 12:30N 33°46' W 118°13'120315308.0
2016-Apr-23 12:25N 29°46' W 095°06'12031212.1
2016-Apr-23 11:25N 33°46' W 118°13'120311311.1
2016-Apr-23 11:19N 29°46' W 095°06'0 0.0
2016-Apr-23 10:31N 29°46' W 095°06'120377359.9
2016-Apr-23 10:30N 33°46' W 118°13'12031109.7
2016-Apr-23 09:25N 29°46' W 095°06'120312931.8
2016-Apr-23 09:19N 33°46' W 118°13'0 0.0
2016-Apr-23 08:16N 33°46' W 118°13'0 0.0
2016-Apr-23 07:31N 33°46' W 118°13'0 0.0
2016-Apr-23 06:20N 33°46' W 118°13'0 0.0
2016-Apr-23 04:28N 33°46' W 118°13'0 0.0
2016-Apr-23 03:32N 33°46' W 118°13'0 0.0
2016-Apr-23 02:31N 33°46' W 118°13'0 0.0
2016-Apr-23 00:19N 33°46' W 118°13'1203947.1
2016-Apr-22 23:03N 29°46' W 095°06'1203721.4
2016-Apr-22 21:23N 33°46' W 118°13'1203940.6
2016-Apr-22 20:06N 29°46' W 095°06'12031940.9
2016-Apr-22 19:29N 33°46' W 118°13'0 0.0
2016-Apr-22 18:13N 33°46' W 118°13'0 0.0
2016-Apr-22 17:24N 33°46' W 118°13'0 0.0
2016-Apr-22 15:32N 33°46' W 118°13'0 0.0
2016-Apr-22 14:33N 33°46' W 118°13'12031168.3
2016-Apr-22 13:32N 29°47' W 095°06'120317190.4
2016-Apr-22 13:27N 33°46' W 118°13'12031325.6
2016-Apr-22 12:33N 29°47' W 095°06'12033416.4
2016-Apr-22 12:12N 33°46' W 118°13'12031881.8
2016-Apr-22 11:33N 29°47' W 095°06'12037600.0
2016-Apr-22 11:24N 33°46' W 118°13'12031429.8
2016-Apr-22 10:33N 29°46' W 095°06'120323803.6
2016-Apr-22 10:30N 33°46' W 118°13'0 0.0
2016-Apr-22 08:33N 33°46' W 118°13'0 0.0
2016-Apr-22 07:30N 33°46' W 118°13'0 0.0
2016-Apr-22 05:33N 33°46' W 118°13'0 0.0
2016-Apr-22 04:32N 33°46' W 118°13'0 0.0
2016-Apr-22 03:21N 33°46' W 118°13'0 0.0
2016-Apr-22 02:32N 33°46' W 118°13'0 0.0
2016-Apr-22 01:33N 33°46' W 118°13'12031217.9
2016-Apr-22 00:33N 29°44' W 095°07'12031083055.3
2016-Apr-22 00:33N 33°46' W 118°13'0 0.0
2016-Apr-21 23:33N 33°46' W 118°13'  
Track history (hours):
 
Tides and Currents Weather Stations Pressure Air Temp Water Temp Dewpoint Dewpoint Depression Visibility Wind Speed Wind Dir Waves Ship Positions

Patcona II

Owner: Connolly-Pacific Co, long beach, CA. More information available from US FCC via Universal Licensing System and Coast Guard Vessel Documentation Center.

Last reported at 2016-May-01 22:33 UTC. Time now 2016-May-01 23:11 UTC.
Position N 33°46' W 118°13'.

; draft 9 m.

Type: Towing. MMSI: 366988960.

Date/timePositionNaut miles runAvg speedWind from/ knotsBaromVisibWave heightAir tempDewpointWater temp
2016-May-01 22:33N 33°46' W 118°13'0 0.0
2016-May-01 21:34N 33°46' W 118°13'0 0.0
2016-May-01 20:33N 33°46' W 118°13'0 0.0
2016-May-01 19:33N 33°46' W 118°13'0 0.0
2016-May-01 18:33N 33°46' W 118°13'0 0.0
2016-May-01 17:33N 33°46' W 118°13'0 0.0
2016-May-01 16:33N 33°46' W 118°13'0 0.0
2016-May-01 15:33N 33°46' W 118°13'119612815.8
2016-May-01 15:28N 29°44' W 095°16'11961323.3
2016-May-01 14:33N 33°46' W 118°13'1198862652.7
2016-May-01 14:33N 29°44' W 095°13'11981199.8
2016-May-01 13:33N 33°46' W 118°13'120363667.6
2016-May-01 13:32N 29°44' W 095°08'12031222.6
2016-May-01 12:33N 33°46' W 118°13'1203144375.5
2016-May-01 12:33N 29°44' W 095°07'12031216.3
2016-May-01 11:33N 33°46' W 118°13'1203117061.2
2016-May-01 11:33N 29°44' W 095°07'12031219.0
2016-May-01 10:34N 33°46' W 118°13'120384926.7
2016-May-01 10:33N 29°44' W 095°07'12031217.0
2016-May-01 09:33N 33°46' W 118°13'1203113980.5
2016-May-01 09:33N 29°44' W 095°07'12031216.0
2016-May-01 08:33N 33°46' W 118°13'1203103125.2
2016-May-01 08:33N 29°44' W 095°07'12031217.7
2016-May-01 07:33N 33°46' W 118°13'1203105640.0
2016-May-01 07:33N 29°44' W 095°07'12031213.2
2016-May-01 06:33N 33°46' W 118°13'1203154687.4
2016-May-01 06:33N 29°44' W 095°07'0 0.0
2016-May-01 05:33N 29°44' W 095°07'1203216563.3
2016-May-01 05:33N 33°46' W 118°13'0 0.0
2016-May-01 04:34N 33°46' W 118°13'120398442.5
2016-May-01 04:33N 29°44' W 095°07'12031215.0
2016-May-01 03:33N 33°46' W 118°13'1200432143.7
2016-May-01 03:33N 29°45' W 095°10'12001203.4
2016-May-01 02:33N 33°46' W 118°13'12004325.8
2016-May-01 02:17N 29°45' W 095°10'12001649.4
2016-May-01 01:33N 33°46' W 118°13'0 0.0
2016-May-01 00:33N 33°46' W 118°13'12004330.1
2016-May-01 00:17N 29°45' W 095°10'12001660.2
2016-Apr-30 23:33N 33°46' W 118°13'12006731.2
2016-Apr-30 23:23N 29°45' W 095°10'12001461.4
2016-Apr-30 22:33N 33°46' W 118°13'1203721763.2
2016-Apr-30 22:33N 29°44' W 095°07'12031201.3
2016-Apr-30 21:33N 33°46' W 118°13'12077275.9
2016-Apr-30 21:23N 29°44' W 095°03'12071451.3
2016-Apr-30 20:33N 33°46' W 118°13'120720109.8
2016-Apr-30 20:30N 29°44' W 095°03'0 0.2
2016-Apr-30 19:33N 29°44' W 095°03'1207310302.6
2016-Apr-30 19:33N 33°46' W 118°13'0 0.0
2016-Apr-30 18:34N 33°46' W 118°13'1211726688.5
2016-Apr-30 18:33N 29°41' W 094°59'4 4.2
2016-Apr-30 17:33N 29°37' W 094°60'12111090285.4
2016-Apr-30 17:33N 33°46' W 118°13'0 0.0
2016-Apr-30 16:34N 33°46' W 118°13'121130922.5
2016-Apr-30 16:31N 29°37' W 095°00'12111256.5
2016-Apr-30 15:33N 33°46' W 118°13'121134603.7
2016-Apr-30 15:31N 29°37' W 095°00'12111259.0
2016-Apr-30 14:34N 33°46' W 118°13'121131825.2
2016-Apr-30 14:31N 29°37' W 095°00'12111255.4
2016-Apr-30 13:33N 33°46' W 118°13'12114233.1
2016-Apr-30 13:16N 29°37' W 095°00'12111696.5
2016-Apr-30 12:33N 33°46' W 118°13'12118844.0
2016-Apr-30 12:25N 29°37' W 095°00'0 0.0
2016-Apr-30 11:34N 29°37' W 095°00'1211545010.6
2016-Apr-30 11:33N 33°46' W 118°13'0 0.0
2016-Apr-30 10:33N 33°46' W 118°13'1213132313.2
2016-Apr-30 10:33N 29°38' W 094°58'12131224.4
2016-Apr-30 09:33N 33°46' W 118°13'0 0.0
2016-Apr-30 08:33N 33°46' W 118°13'0 0.0
2016-Apr-30 07:33N 33°46' W 118°13'0 0.0
2016-Apr-30 06:33N 33°46' W 118°13'0 0.0
2016-Apr-30 05:34N 33°46' W 118°13'0 0.0
2016-Apr-30 04:34N 33°46' W 118°13'0 0.0
2016-Apr-30 03:33N 33°46' W 118°13'0 0.0
2016-Apr-30 02:32N 33°46' W 118°13'0 0.0
2016-Apr-30 01:33N 33°46' W 118°13'120360165.6
2016-Apr-30 01:32N 29°47' W 095°06'12031224.4
2016-Apr-30 00:33N 33°46' W 118°13'120367686.3
2016-Apr-30 00:32N 29°47' W 095°06'12031218.2
2016-Apr-29 23:33N 33°46' W 118°13'12032813.0
2016-Apr-29 23:07N 29°47' W 095°06'2 2.9
2016-Apr-29 22:33N 29°46' W 095°05'12051445881.1
2016-Apr-29 22:33N 33°46' W 118°13'12111215.0
2016-Apr-29 21:33N 29°41' W 094°59'12111452770.9
2016-Apr-29 21:33N 33°46' W 118°13'0 0.0
2016-Apr-29 20:32N 33°46' W 118°13'1210145227.2
2016-Apr-29 20:32N 29°41' W 094°60'12101237.7
2016-Apr-29 19:33N 33°46' W 118°13'0 0.0
2016-Apr-29 18:32N 33°46' W 118°13'1210396074.0
2016-Apr-29 18:32N 29°41' W 094°60'0 0.0
2016-Apr-29 17:32N 29°41' W 094°60'121026728.9
2016-Apr-29 17:29N 33°46' W 118°13'0 0.0
2016-Apr-29 16:33N 33°46' W 118°13'1210484090.5
2016-Apr-29 16:33N 29°41' W 094°60'12101212.6
2016-Apr-29 15:33N 33°46' W 118°13'120612129.5
2016-Apr-29 15:27N 29°44' W 095°03'12061340.2
2016-Apr-29 14:33N 33°46' W 118°13'120352828.9
2016-Apr-29 14:32N 29°47' W 095°06'12031231.0
2016-Apr-29 13:33N 33°46' W 118°13'120329876.1
2016-Apr-29 13:31N 29°47' W 095°06'12031254.2
2016-Apr-29 12:33N 33°46' W 118°13'0 0.0
2016-Apr-29 11:33N 33°46' W 118°13'0 0.0
2016-Apr-29 10:33N 33°46' W 118°13'120384942.7
2016-Apr-29 10:33N 29°47' W 095°06'12031220.6
2016-Apr-29 09:33N 33°46' W 118°13'0 0.0
2016-Apr-29 08:33N 33°46' W 118°13'0 0.0
2016-Apr-29 07:33N 33°46' W 118°13'0 0.0
2016-Apr-29 06:33N 33°46' W 118°13'0 0.0
2016-Apr-29 05:33N 33°46' W 118°13'0 0.0
2016-Apr-29 04:33N 33°46' W 118°13'0 0.0
2016-Apr-29 03:33N 33°46' W 118°13'0 0.0
2016-Apr-29 02:33N 33°46' W 118°13'0 0.0
2016-Apr-29 01:33N 33°46' W 118°13'0 0.0
2016-Apr-29 00:33N 33°46' W 118°13'0 0.0
2016-Apr-28 23:34N 33°46' W 118°13'0 0.0
2016-Apr-28 22:33N 33°46' W 118°13'0 0.0
2016-Apr-28 21:33N 33°46' W 118°13'0 0.0
2016-Apr-28 20:33N 33°46' W 118°13'0 0.0
2016-Apr-28 19:34N 33°46' W 118°13'0 0.0
2016-Apr-28 18:33N 33°46' W 118°13'0 0.0
2016-Apr-28 17:33N 33°46' W 118°13'0 0.0
2016-Apr-28 16:33N 33°46' W 118°13'0 0.0
2016-Apr-28 15:33N 33°46' W 118°13'0 0.0
2016-Apr-28 14:33N 33°46' W 118°13'0 0.0
2016-Apr-28 13:33N 33°46' W 118°13'120417908.8
2016-Apr-28 13:29N 29°45' W 095°06'3 2.8
2016-Apr-28 12:33N 29°44' W 095°03'1207723908.1
2016-Apr-28 12:33N 33°46' W 118°13'0 0.0
2016-Apr-28 11:33N 33°46' W 118°13'0 0.0
2016-Apr-28 10:33N 33°46' W 118°13'0 0.0
2016-Apr-28 09:33N 33°46' W 118°13'0 0.0
2016-Apr-28 08:33N 33°46' W 118°13'0 0.0
2016-Apr-28 07:33N 33°46' W 118°13'0 0.0
2016-Apr-28 06:33N 33°46' W 118°13'0 0.0
2016-Apr-28 05:33N 33°46' W 118°13'0 0.0
2016-Apr-28 04:33N 33°46' W 118°13'0 0.0
2016-Apr-28 03:33N 33°46' W 118°13'0 0.0
2016-Apr-28 02:34N 33°46' W 118°13'0 0.0
2016-Apr-28 01:33N 33°46' W 118°13'0 0.0
2016-Apr-28 00:33N 33°46' W 118°13'0 0.0
2016-Apr-27 23:33N 33°46' W 118°13'0 0.0
2016-Apr-27 22:33N 33°46' W 118°13'1207543035.1
2016-Apr-27 22:33N 29°44' W 095°03'12071209.1
2016-Apr-27 21:33N 33°46' W 118°13'0 0.0
2016-Apr-27 20:33N 33°46' W 118°13'0 0.0
2016-Apr-27 19:33N 33°46' W 118°13'120325940.3
2016-Apr-27 19:31N 29°47' W 095°06'12031262.2
2016-Apr-27 18:33N 33°46' W 118°13'120373409.8
2016-Apr-27 18:32N 29°44' W 095°07'12031206.5
2016-Apr-27 17:33N 33°46' W 118°13'0 0.0
2016-Apr-27 16:28N 33°46' W 118°13'0 0.0
2016-Apr-27 15:33N 33°46' W 118°13'0 0.0
2016-Apr-27 14:33N 33°46' W 118°13'0 0.0
2016-Apr-27 13:33N 33°46' W 118°13'0 0.0
2016-Apr-27 12:34N 33°46' W 118°13'12034267.9
2016-Apr-27 12:17N 29°47' W 095°06'12031670.0
2016-Apr-27 11:33N 33°46' W 118°13'120315146.7
2016-Apr-27 11:29N 29°47' W 095°06'12031307.2
2016-Apr-27 10:33N 33°46' W 118°13'120315307.3
2016-Apr-27 10:29N 29°47' W 095°06'12031306.0
2016-Apr-27 09:33N 33°46' W 118°13'120383310.1
2016-Apr-27 09:33N 29°47' W 095°06'12031221.0
2016-Apr-27 08:33N 33°46' W 118°13'12042346.5
2016-Apr-27 08:03N 29°45' W 095°06'12042470.9
2016-Apr-27 07:33N 33°46' W 118°13'0 0.0
2016-Apr-27 06:33N 33°46' W 118°13'0 0.0
2016-Apr-27 05:34N 33°46' W 118°13'0 0.0
2016-Apr-27 04:33N 33°46' W 118°13'0 0.0
2016-Apr-27 03:33N 33°46' W 118°13'0 0.0
2016-Apr-27 02:33N 33°46' W 118°13'0 0.0
2016-Apr-27 01:34N 33°46' W 118°13'0 0.0
2016-Apr-27 00:33N 33°46' W 118°13'0 0.0
2016-Apr-26 23:33N 33°46' W 118°13'120312334.8
2016-Apr-26 23:28N 29°44' W 095°08'12031332.6
2016-Apr-26 22:33N 33°46' W 118°13'0 0.0
2016-Apr-26 21:34N 33°46' W 118°13'0 0.0
2016-Apr-26 20:33N 33°46' W 118°13'0 0.0
2016-Apr-26 19:34N 33°46' W 118°13'0 0.0
2016-Apr-26 18:34N 33°46' W 118°13'0 0.0
2016-Apr-26 17:33N 33°46' W 118°13'0 0.0
2016-Apr-26 16:33N 33°46' W 118°13'11971199.6
2016-Apr-26 15:34N 29°43' W 095°15'1197253531.0
2016-Apr-26 15:33N 33°46' W 118°13'0 0.0
2016-Apr-26 14:34N 33°46' W 118°13'1202139641.0
2016-Apr-26 14:33N 29°44' W 095°08'12021209.5
2016-Apr-26 13:33N 33°46' W 118°13'1203333235.6
2016-Apr-26 13:33N 29°47' W 095°06'0 0.1
2016-Apr-26 12:33N 29°47' W 095°06'1203188346.2
2016-Apr-26 12:33N 33°46' W 118°13'0 0.0
2016-Apr-26 11:33N 33°46' W 118°13'1203433194.4
2016-Apr-26 11:33N 29°47' W 095°06'0 0.0
2016-Apr-26 10:33N 29°47' W 095°06'12032165971.9
2016-Apr-26 10:33N 33°46' W 118°13'12031204.0
2016-Apr-26 09:33N 29°47' W 095°06'12032165971.9
2016-Apr-26 09:33N 33°46' W 118°13'0 0.0
2016-Apr-26 08:33N 33°46' W 118°13'120354834.7
2016-Apr-26 08:32N 29°47' W 095°06'1 1.2
2016-Apr-26 07:34N 29°46' W 095°05'120490316.2
2016-Apr-26 07:33N 33°46' W 118°13'0 0.0
2016-Apr-26 06:33N 33°46' W 118°13'0 0.0
2016-Apr-26 05:34N 33°46' W 118°13'0 0.0
2016-Apr-26 04:33N 33°46' W 118°13'0 0.0
2016-Apr-26 03:33N 33°46' W 118°13'12041205.1
2016-Apr-26 02:33N 29°45' W 095°06'1204197041.3
2016-Apr-26 02:33N 33°46' W 118°13'12101216.6
2016-Apr-26 01:33N 29°42' W 094°60'1210207405.1
2016-Apr-26 01:33N 33°46' W 118°13'12151222.3
2016-Apr-26 00:33N 29°36' W 094°56'1215208248.8
2016-Apr-26 00:33N 33°46' W 118°13'0 0.0
2016-Apr-25 23:33N 33°46' W 118°13'1221244124.8
2016-Apr-25 23:33N 29°29' W 094°52'12211227.4
2016-Apr-25 22:33N 33°46' W 118°13'0 0.0
2016-Apr-25 21:33N 33°46' W 118°13'0 0.0
2016-Apr-25 20:33N 33°46' W 118°13'0 0.0
2016-Apr-25 19:33N 33°46' W 118°13'0 0.0
2016-Apr-25 18:33N 33°46' W 118°13'0 0.0
2016-Apr-25 17:34N 33°46' W 118°13'0 0.0
2016-Apr-25 16:33N 33°46' W 118°13'0 0.0
2016-Apr-25 15:33N 33°46' W 118°13'0 0.0
2016-Apr-25 14:33N 33°46' W 118°13'0 0.0
2016-Apr-25 13:33N 33°46' W 118°13'0 0.0
2016-Apr-25 12:33N 33°46' W 118°13'0 0.0
2016-Apr-25 11:33N 33°46' W 118°13'0 0.0
2016-Apr-25 10:33N 33°46' W 118°13'0 0.0
2016-Apr-25 09:33N 33°46' W 118°13'0 0.0
2016-Apr-25 08:33N 33°46' W 118°13'0 0.0
2016-Apr-25 07:33N 33°46' W 118°13'0 0.0
2016-Apr-25 06:33N 33°46' W 118°13'0 0.0
2016-Apr-25 05:33N 33°46' W 118°13'0 0.0
2016-Apr-25 04:33N 33°46' W 118°13'0 0.0
2016-Apr-25 03:33N 33°46' W 118°13'0 0.0
2016-Apr-25 02:33N 33°46' W 118°13'0 0.0
2016-Apr-25 01:33N 33°46' W 118°13'0 0.0
2016-Apr-25 00:34N 33°46' W 118°13'0 0.0
2016-Apr-24 23:33N 33°46' W 118°13'0 0.0
2016-Apr-24 22:34N 33°46' W 118°13'0 0.0
2016-Apr-24 21:33N 33°46' W 118°13'0 0.0
2016-Apr-24 20:33N 33°46' W 118°13'0 0.0
2016-Apr-24 19:33N 33°46' W 118°13'0 0.0
2016-Apr-24 18:33N 33°46' W 118°13'1223107417.4
2016-Apr-24 18:33N 29°22' W 094°51'12231237.5
2016-Apr-24 17:33N 33°46' W 118°13'0 0.0
2016-Apr-24 16:33N 33°46' W 118°13'0 0.0
2016-Apr-24 15:33N 33°46' W 118°13'0 0.0
2016-Apr-24 14:34N 33°46' W 118°13'0 0.0
2016-Apr-24 13:33N 33°46' W 118°13'0 0.0
2016-Apr-24 12:32N 33°46' W 118°13'0 0.0
2016-Apr-24 11:29N 33°46' W 118°13'0 0.0
2016-Apr-24 10:25N 33°46' W 118°13'0 0.0
2016-Apr-24 09:21N 33°46' W 118°13'0 0.0
2016-Apr-24 08:29N 33°46' W 118°13'0 0.0
2016-Apr-24 07:32N 33°46' W 118°13'0 0.0
2016-Apr-24 06:29N 33°46' W 118°13'0 0.0
2016-Apr-24 05:28N 33°46' W 118°13'0 0.0
2016-Apr-24 04:27N 33°46' W 118°13'0 0.0
2016-Apr-24 03:33N 33°46' W 118°13'0 0.0
2016-Apr-24 02:33N 33°46' W 118°13'0 0.0
2016-Apr-24 01:33N 33°46' W 118°13'12295286.7
2016-Apr-24 01:19N 29°21' W 094°45'12291591.7
2016-Apr-24 00:33N 33°46' W 118°13'122418431.2
2016-Apr-24 00:29N 29°25' W 094°50'7 7.8
2016-Apr-23 23:33N 29°32' W 094°53'1218208879.7
2016-Apr-23 23:33N 33°46' W 118°13'12131213.1
2016-Apr-23 22:33N 29°38' W 094°58'12131091450.9
2016-Apr-23 22:33N 33°46' W 118°13'0 0.0
2016-Apr-23 21:33N 33°46' W 118°13'12068716.1
2016-Apr-23 21:24N 29°45' W 095°04'12061234.2
2016-Apr-23 20:26N 33°46' W 118°13'0 0.0
2016-Apr-23 19:33N 33°46' W 118°13'0 0.0
2016-Apr-23 18:31N 33°46' W 118°13'0 0.0
2016-Apr-23 16:31N 33°46' W 118°13'0 0.0
2016-Apr-23 15:18N 33°46' W 118°13'120311583.0
2016-Apr-23 15:12N 29°47' W 095°06'12031763.9
2016-Apr-23 14:31N 33°46' W 118°13'12031206.1
2016-Apr-23 13:31N 29°46' W 095°06'12034719.1
2016-Apr-23 13:16N 33°46' W 118°13'0 0.0
2016-Apr-23 12:30N 33°46' W 118°13'120315308.0
2016-Apr-23 12:25N 29°46' W 095°06'12031212.1
2016-Apr-23 11:25N 33°46' W 118°13'120311311.1
2016-Apr-23 11:19N 29°46' W 095°06'0 0.0
2016-Apr-23 10:31N 29°46' W 095°06'120377359.9
2016-Apr-23 10:30N 33°46' W 118°13'12031109.7
2016-Apr-23 09:25N 29°46' W 095°06'120312931.8
2016-Apr-23 09:19N 33°46' W 118°13'0 0.0
2016-Apr-23 08:16N 33°46' W 118°13'0 0.0
2016-Apr-23 07:31N 33°46' W 118°13'0 0.0
2016-Apr-23 06:20N 33°46' W 118°13'0 0.0
2016-Apr-23 04:28N 33°46' W 118°13'0 0.0
2016-Apr-23 03:32N 33°46' W 118°13'0 0.0
2016-Apr-23 02:31N 33°46' W 118°13'0 0.0
2016-Apr-23 00:19N 33°46' W 118°13'1203947.1
2016-Apr-22 23:03N 29°46' W 095°06'1203721.4
2016-Apr-22 21:23N 33°46' W 118°13'1203940.6
2016-Apr-22 20:06N 29°46' W 095°06'12031940.9
2016-Apr-22 19:29N 33°46' W 118°13'0 0.0
2016-Apr-22 18:13N 33°46' W 118°13'0 0.0
2016-Apr-22 17:24N 33°46' W 118°13'0 0.0
2016-Apr-22 15:32N 33°46' W 118°13'0 0.0
2016-Apr-22 14:33N 33°46' W 118°13'12031168.3
2016-Apr-22 13:32N 29°47' W 095°06'120317190.4
2016-Apr-22 13:27N 33°46' W 118°13'12031325.6
2016-Apr-22 12:33N 29°47' W 095°06'12033416.4
2016-Apr-22 12:12N 33°46' W 118°13'12031881.8
2016-Apr-22 11:33N 29°47' W 095°06'12037600.0
2016-Apr-22 11:24N 33°46' W 118°13'12031429.8
2016-Apr-22 10:33N 29°46' W 095°06'120323803.6
2016-Apr-22 10:30N 33°46' W 118°13'0 0.0
2016-Apr-22 08:33N 33°46' W 118°13'0 0.0
2016-Apr-22 07:30N 33°46' W 118°13'0 0.0
2016-Apr-22 05:33N 33°46' W 118°13'0 0.0
2016-Apr-22 04:32N 33°46' W 118°13'0 0.0
2016-Apr-22 03:21N 33°46' W 118°13'0 0.0
2016-Apr-22 02:32N 33°46' W 118°13'0 0.0
2016-Apr-22 01:33N 33°46' W 118°13'12031217.9
2016-Apr-22 00:33N 29°44' W 095°07'12031083055.3
2016-Apr-22 00:33N 33°46' W 118°13'0 0.0
2016-Apr-21 23:33N 33°46' W 118°13'  

Dump ship's entire track history